PWSweather.com
Personal Weather Stations
Station Observations
CALONGE
CalongeES 17251

CalongeES 17251

Lat: 41.85972222, Lon: 3.077777778

Elevation: 16

Station Type: Oregon WMR928N

www.calonge-meteoweb.com

High Low Average
Temperature 81.0°F27.2°C 64.6°F18.1°C 72.4°F22.4°C
Dew Point 50.2°F10.1°C 37.0°F2.8°C 44.4°F6.9°C
Winds 12.6 mph 20.3 kmh Calm Calm 7.0 mph W11.3 kmh W
Wind Gusts 21.4 mph34.4 kmh -- 14.0 mph22.5 kmh
Humidity 45% 23% 37%
Pressure 29.89 in1012.2 mb 29.80 in1009.1 mb -
Precipitation 0.00 in0.0 mm - -
Hour Temp Dew Point Humidity Winds Wind Gusts Pressure Precip Precip Rate Daily Precip Total
12:00 AM 70.2°F21.2°C 47.2°F8.4°C 44% 5.3 mph NW8.5 kmh NW 13.8 mph22.2 kmh 29.89 in1012.2 mb 0.00 in0.0 mm 0.00 in0.0 mm 0.00 in0.0 mm
12:15 AM 70.9°F21.6°C 47.3°F8.5°C 43% 9.4 mph NW15.1 kmh NW 16.1 mph25.9 kmh 29.89 in1012.2 mb 0.00 in0.0 mm 0.00 in0.0 mm 0.00 in0.0 mm
12:30 AM 71.4°F21.9°C 47.7°F8.7°C 43% 7.6 mph NW12.2 kmh NW 16.1 mph25.9 kmh 29.86 in1011.2 mb 0.00 in0.0 mm 0.00 in0.0 mm 0.00 in0.0 mm
12:45 AM 71.6°F22.0°C 47.9°F8.8°C 43% 4.1 mph NW6.6 kmh NW 17.3 mph27.8 kmh 29.86 in1011.2 mb 0.00 in0.0 mm 0.00 in0.0 mm 0.00 in0.0 mm
01:00 AM 71.8°F22.1°C 48.1°F8.9°C 43% 6.4 mph NW10.3 kmh NW 11.4 mph18.3 kmh 29.86 in1011.2 mb 0.00 in0.0 mm 0.00 in0.0 mm 0.00 in0.0 mm
01:15 AM 71.6°F22.0°C 47.3°F8.5°C 42% 3.5 mph NW5.6 kmh NW 16.1 mph25.9 kmh 29.86 in1011.2 mb 0.00 in0.0 mm 0.00 in0.0 mm 0.00 in0.0 mm
01:30 AM 71.8°F22.1°C 46.8°F8.2°C 41% 5.9 mph NW9.5 kmh NW 20.2 mph32.5 kmh 29.86 in1011.2 mb 0.00 in0.0 mm 0.00 in0.0 mm 0.00 in0.0 mm
01:45 AM 71.6°F22.0°C 45.3°F7.4°C 39% 8.2 mph NW13.2 kmh NW 14.4 mph23.2 kmh 29.86 in1011.2 mb 0.00 in0.0 mm 0.00 in0.0 mm 0.00 in0.0 mm
02:00 AM 71.6°F22.0°C 44.6°F7.0°C 38% 4.1 mph N6.6 kmh N 14.4 mph23.2 kmh 29.83 in1010.2 mb 0.00 in0.0 mm 0.00 in0.0 mm 0.00 in0.0 mm
02:15 AM 71.6°F22.0°C 44.6°F7.0°C 38% 5.9 mph NW9.5 kmh NW 17.3 mph27.8 kmh 29.83 in1010.2 mb 0.00 in0.0 mm 0.00 in0.0 mm 0.00 in0.0 mm
02:30 AM 71.4°F21.9°C 45.8°F7.7°C 40% 7.6 mph NNW12.2 kmh NNW 11.4 mph18.3 kmh 29.86 in1011.2 mb 0.00 in0.0 mm 0.00 in0.0 mm 0.00 in0.0 mm
02:45 AM 71.2°F21.8°C 46.3°F7.9°C 41% 3.5 mph NW5.6 kmh NW 14.4 mph23.2 kmh 29.83 in1010.2 mb 0.00 in0.0 mm 0.00 in0.0 mm 0.00 in0.0 mm
03:00 AM 71.2°F21.8°C 46.3°F7.9°C 41% 6.4 mph NW10.3 kmh NW 15.5 mph24.9 kmh 29.86 in1011.2 mb 0.00 in0.0 mm 0.00 in0.0 mm 0.00 in0.0 mm
03:15 AM 71.2°F21.8°C 46.3°F7.9°C 41% Calm Calm 10.8 mph17.4 kmh 29.83 in1010.2 mb 0.00 in0.0 mm 0.00 in0.0 mm 0.00 in0.0 mm
03:30 AM 70.9°F21.6°C 46.6°F8.1°C 42% Calm Calm 8.2 mph13.2 kmh 29.86 in1011.2 mb 0.00 in0.0 mm 0.00 in0.0 mm 0.00 in0.0 mm
03:45 AM 70.5°F21.4°C 46.9°F8.3°C 43% 6.4 mph NW10.3 kmh NW 9.4 mph15.1 kmh 29.86 in1011.2 mb 0.00 in0.0 mm 0.00 in0.0 mm 0.00 in0.0 mm
04:00 AM 70.2°F21.2°C 46.6°F8.1°C 43% 3.5 mph NW5.6 kmh NW 6.4 mph10.3 kmh 29.86 in1011.2 mb 0.00 in0.0 mm 0.00 in0.0 mm 0.00 in0.0 mm
04:15 AM 69.8°F21.0°C 46.9°F8.3°C 44% 5.9 mph NW9.5 kmh NW 10.8 mph17.4 kmh 29.86 in1011.2 mb 0.00 in0.0 mm 0.00 in0.0 mm 0.00 in0.0 mm
04:30 AM 69.6°F20.9°C 46.7°F8.2°C 44% 8.2 mph NW13.2 kmh NW 13.2 mph21.2 kmh 29.83 in1010.2 mb 0.00 in0.0 mm 0.00 in0.0 mm 0.00 in0.0 mm
04:45 AM 69.6°F20.9°C 46.7°F8.2°C 44% 4.7 mph NW7.6 kmh NW 10.5 mph16.9 kmh 29.83 in1010.2 mb 0.00 in0.0 mm 0.00 in0.0 mm 0.00 in0.0 mm
05:00 AM 69.4°F20.8°C 46.6°F8.1°C 44% 2.9 mph NW4.7 kmh NW 10.8 mph17.4 kmh 29.86 in1011.2 mb 0.00 in0.0 mm 0.00 in0.0 mm 0.00 in0.0 mm
05:15 AM 69.1°F20.6°C 46.8°F8.2°C 45% Calm Calm 4.7 mph7.6 kmh 29.86 in1011.2 mb 0.00 in0.0 mm 0.00 in0.0 mm 0.00 in0.0 mm
05:30 AM 69.1°F20.6°C 46.2°F7.9°C 44% 4.7 mph NNW7.6 kmh NNW 11.4 mph18.3 kmh 29.86 in1011.2 mb 0.00 in0.0 mm 0.00 in0.0 mm 0.00 in0.0 mm
05:45 AM 69.1°F20.6°C 46.2°F7.9°C 44% 8.8 mph NW14.2 kmh NW 12.6 mph20.3 kmh 29.86 in1011.2 mb 0.00 in0.0 mm 0.00 in0.0 mm 0.00 in0.0 mm
06:00 AM 68.9°F20.5°C 45.5°F7.5°C 43% 5.3 mph NW8.5 kmh NW 13.2 mph21.2 kmh 29.86 in1011.2 mb 0.00 in0.0 mm 0.00 in0.0 mm 0.00 in0.0 mm
06:15 AM 68.9°F20.5°C 44.9°F7.2°C 42% 9.4 mph NW15.1 kmh NW 13.2 mph21.2 kmh 29.86 in1011.2 mb 0.00 in0.0 mm 0.00 in0.0 mm 0.00 in0.0 mm
06:30 AM 69.1°F20.6°C 44.4°F6.9°C 41% 6.4 mph NW10.3 kmh NW 14.4 mph23.2 kmh 29.86 in1011.2 mb 0.00 in0.0 mm 0.00 in0.0 mm 0.00 in0.0 mm
06:45 AM 69.1°F20.6°C 44.4°F6.9°C 41% 8.8 mph NW14.2 kmh NW 13.2 mph21.2 kmh 29.86 in1011.2 mb 0.00 in0.0 mm 0.00 in0.0 mm 0.00 in0.0 mm
07:00 AM 69.3°F20.7°C 44.5°F6.9°C 41% 5.3 mph NW8.5 kmh NW 11.4 mph18.3 kmh 29.86 in1011.2 mb 0.00 in0.0 mm 0.00 in0.0 mm 0.00 in0.0 mm
07:15 AM 69.3°F20.7°C 43.9°F6.6°C 40% 10.5 mph NW16.9 kmh NW 14.4 mph23.2 kmh 29.86 in1011.2 mb 0.00 in0.0 mm 0.00 in0.0 mm 0.00 in0.0 mm
07:30 AM 70.0°F21.1°C 43.9°F6.6°C 39% 8.2 mph NW13.2 kmh NW 13.8 mph22.2 kmh 29.86 in1011.2 mb 0.00 in0.0 mm 0.00 in0.0 mm 0.00 in0.0 mm
07:45 AM 70.2°F21.2°C 44.0°F6.7°C 39% 10.0 mph NW16.1 kmh NW 14.4 mph23.2 kmh 29.86 in1011.2 mb 0.00 in0.0 mm 0.00 in0.0 mm 0.00 in0.0 mm
08:00 AM 70.3°F21.3°C 44.2°F6.8°C 39% 7.0 mph NW11.3 kmh NW 13.8 mph22.2 kmh 29.86 in1011.2 mb 0.00 in0.0 mm 0.00 in0.0 mm 0.00 in0.0 mm
08:15 AM 71.1°F21.7°C 44.8°F7.1°C 39% 10.8 mph NW17.4 kmh NW 16.1 mph25.9 kmh 29.86 in1011.2 mb 0.00 in0.0 mm 0.00 in0.0 mm 0.00 in0.0 mm
08:30 AM 72.0°F22.2°C 43.5°F6.4°C 36% 8.8 mph NW14.2 kmh NW 16.7 mph26.9 kmh 29.86 in1011.2 mb 0.00 in0.0 mm 0.00 in0.0 mm 0.00 in0.0 mm
08:45 AM 72.7°F22.6°C 43.4°F6.3°C 35% 10.0 mph NW16.1 kmh NW 16.7 mph26.9 kmh 29.86 in1011.2 mb 0.00 in0.0 mm 0.00 in0.0 mm 0.00 in0.0 mm
09:00 AM 73.8°F23.2°C 42.9°F6.1°C 33% 11.4 mph NW18.3 kmh NW 20.2 mph32.5 kmh 29.86 in1011.2 mb 0.00 in0.0 mm 0.00 in0.0 mm 0.00 in0.0 mm
09:15 AM 74.5°F23.6°C 42.7°F5.9°C 32% 10.8 mph NW17.4 kmh NW 15.5 mph24.9 kmh 29.86 in1011.2 mb 0.00 in0.0 mm 0.00 in0.0 mm 0.00 in0.0 mm
09:30 AM 75.6°F24.2°C 42.8°F6.0°C 31% 12.6 mph NNW20.3 kmh NNW 19.6 mph31.5 kmh 29.86 in1011.2 mb 0.00 in0.0 mm 0.00 in0.0 mm 0.00 in0.0 mm
09:45 AM 76.1°F24.5°C 43.3°F6.3°C 31% 9.4 mph NW15.1 kmh NW 21.4 mph34.4 kmh 29.86 in1011.2 mb 0.00 in0.0 mm 0.00 in0.0 mm 0.00 in0.0 mm
10:00 AM 77.4°F25.2°C 41.7°F5.4°C 28% 10.8 mph NW17.4 kmh NW 19.0 mph30.6 kmh 29.86 in1011.2 mb 0.00 in0.0 mm 0.00 in0.0 mm 0.00 in0.0 mm
10:15 AM 77.5°F25.3°C 40.9°F4.9°C 27% 8.8 mph NW14.2 kmh NW 20.2 mph32.5 kmh 29.86 in1011.2 mb 0.00 in0.0 mm 0.00 in0.0 mm 0.00 in0.0 mm
10:30 AM 78.1°F25.6°C 40.4°F4.7°C 26% 10.8 mph NW17.4 kmh NW 17.3 mph27.8 kmh 29.86 in1011.2 mb 0.00 in0.0 mm 0.00 in0.0 mm 0.00 in0.0 mm
10:45 AM 79.0°F26.1°C 39.1°F3.9°C 24% 10.5 mph NW16.9 kmh NW 14.4 mph23.2 kmh 29.86 in1011.2 mb 0.00 in0.0 mm 0.00 in0.0 mm 0.00 in0.0 mm
11:00 AM 79.9°F26.6°C 39.9°F4.4°C 24% 7.6 mph NW12.2 kmh NW 12.6 mph20.3 kmh 29.86 in1011.2 mb 0.00 in0.0 mm 0.00 in0.0 mm 0.00 in0.0 mm
11:15 AM 80.4°F26.9°C 39.2°F4.0°C 23% 7.0 mph NW11.3 kmh NW 14.4 mph23.2 kmh 29.86 in1011.2 mb 0.00 in0.0 mm 0.00 in0.0 mm 0.00 in0.0 mm
11:30 AM 81.0°F27.2°C 46.6°F8.1°C 30% 5.9 mph E9.5 kmh E 14.4 mph23.2 kmh 29.86 in1011.2 mb 0.00 in0.0 mm 0.00 in0.0 mm 0.00 in0.0 mm
11:45 AM 79.2°F26.2°C 45.9°F7.7°C 31% 11.4 mph S18.3 kmh S 19.6 mph31.5 kmh 29.86 in1011.2 mb 0.00 in0.0 mm 0.00 in0.0 mm 0.00 in0.0 mm
12:00 PM 79.0°F26.1°C 46.6°F8.1°C 32% 8.8 mph S14.2 kmh S 17.3 mph27.8 kmh 29.86 in1011.2 mb 0.00 in0.0 mm 0.00 in0.0 mm 0.00 in0.0 mm
12:15 PM 77.2°F25.1°C 46.6°F8.1°C 34% 12.0 mph S19.3 kmh S 17.3 mph27.8 kmh 29.86 in1011.2 mb 0.00 in0.0 mm 0.00 in0.0 mm 0.00 in0.0 mm
12:30 PM 76.5°F24.7°C 46.8°F8.2°C 35% 12.6 mph SSE20.3 kmh SSE 20.8 mph33.5 kmh 29.86 in1011.2 mb 0.00 in0.0 mm 0.00 in0.0 mm 0.00 in0.0 mm
12:45 PM 76.1°F24.5°C 46.5°F8.1°C 35% 10.8 mph SSE17.4 kmh SSE 17.9 mph28.8 kmh 29.86 in1011.2 mb 0.00 in0.0 mm 0.00 in0.0 mm 0.00 in0.0 mm
01:00 PM 76.3°F24.6°C 46.6°F8.1°C 35% 11.4 mph SSE18.3 kmh SSE 20.8 mph33.5 kmh 29.86 in1011.2 mb 0.00 in0.0 mm 0.00 in0.0 mm 0.00 in0.0 mm
01:15 PM 77.2°F25.1°C 45.8°F7.7°C 33% 12.0 mph S19.3 kmh S 19.6 mph31.5 kmh 29.86 in1011.2 mb 0.00 in0.0 mm 0.00 in0.0 mm 0.00 in0.0 mm
01:30 PM 77.7°F25.4°C 46.3°F7.9°C 33% 10.8 mph S17.4 kmh S 19.0 mph30.6 kmh 29.86 in1011.2 mb 0.00 in0.0 mm 0.00 in0.0 mm 0.00 in0.0 mm
01:45 PM 77.7°F25.4°C 45.5°F7.5°C 32% 11.4 mph SSE18.3 kmh SSE 16.7 mph26.9 kmh 29.86 in1011.2 mb 0.00 in0.0 mm 0.00 in0.0 mm 0.00 in0.0 mm
02:00 PM 76.1°F24.5°C 46.5°F8.1°C 35% 9.4 mph SSE15.1 kmh SSE 16.7 mph26.9 kmh 29.86 in1011.2 mb 0.00 in0.0 mm 0.00 in0.0 mm 0.00 in0.0 mm
02:15 PM 76.8°F24.9°C 48.6°F9.2°C 37% 10.0 mph SSE16.1 kmh SSE 15.5 mph24.9 kmh 29.86 in1011.2 mb 0.00 in0.0 mm 0.00 in0.0 mm 0.00 in0.0 mm
02:30 PM 76.3°F24.6°C 48.1°F8.9°C 37% 11.4 mph SSE18.3 kmh SSE 16.1 mph25.9 kmh 29.86 in1011.2 mb 0.00 in0.0 mm 0.00 in0.0 mm 0.00 in0.0 mm
02:45 PM 76.3°F24.6°C 50.2°F10.1°C 40% 6.4 mph S10.3 kmh S 16.1 mph25.9 kmh 29.86 in1011.2 mb 0.00 in0.0 mm 0.00 in0.0 mm 0.00 in0.0 mm
03:00 PM 75.7°F24.3°C 49.7°F9.8°C 40% 5.3 mph SSE8.5 kmh SSE 17.3 mph27.8 kmh 29.86 in1011.2 mb 0.00 in0.0 mm 0.00 in0.0 mm 0.00 in0.0 mm
03:15 PM 74.5°F23.6°C 46.5°F8.1°C 37% 5.3 mph SSE8.5 kmh SSE 14.9 mph24.0 kmh 29.86 in1011.2 mb 0.00 in0.0 mm 0.00 in0.0 mm 0.00 in0.0 mm
03:30 PM 73.8°F23.2°C 47.3°F8.5°C 39% 7.6 mph SSW12.2 kmh SSW 11.4 mph18.3 kmh 29.86 in1011.2 mb 0.00 in0.0 mm 0.00 in0.0 mm 0.00 in0.0 mm
03:45 PM 73.8°F23.2°C 47.9°F8.8°C 40% 4.7 mph S7.6 kmh S 11.4 mph18.3 kmh 29.86 in1011.2 mb 0.00 in0.0 mm 0.00 in0.0 mm 0.00 in0.0 mm
04:15 PM 74.3°F23.5°C 47.7°F8.7°C 39% 8.8 mph S14.2 kmh S 10.5 mph16.9 kmh 29.83 in1010.2 mb 0.00 in0.0 mm 0.00 in0.0 mm 0.00 in0.0 mm
04:45 PM 75.4°F24.1°C 47.3°F8.5°C 37% 3.5 mph SSW5.6 kmh SSW 8.2 mph13.2 kmh 29.83 in1010.2 mb 0.00 in0.0 mm 0.00 in0.0 mm 0.00 in0.0 mm
05:00 PM 75.4°F24.1°C 45.1°F7.3°C 34% 4.1 mph WSW6.6 kmh WSW 7.6 mph12.2 kmh 29.83 in1010.2 mb 0.00 in0.0 mm 0.00 in0.0 mm 0.00 in0.0 mm
05:15 PM 76.3°F24.6°C 45.8°F7.7°C 34% 2.9 mph SSW4.7 kmh SSW 7.6 mph12.2 kmh 29.83 in1010.2 mb 0.00 in0.0 mm 0.00 in0.0 mm 0.00 in0.0 mm
05:30 PM 76.1°F24.5°C 45.7°F7.6°C 34% 5.9 mph SW9.5 kmh SW 7.6 mph12.2 kmh 29.83 in1010.2 mb 0.00 in0.0 mm 0.00 in0.0 mm 0.00 in0.0 mm
05:45 PM 76.1°F24.5°C 44.1°F6.7°C 32% Calm Calm 11.4 mph18.3 kmh 29.83 in1010.2 mb 0.00 in0.0 mm 0.00 in0.0 mm 0.00 in0.0 mm
06:00 PM 75.6°F24.2°C 43.6°F6.4°C 32% Calm Calm 8.2 mph13.2 kmh 29.83 in1010.2 mb 0.00 in0.0 mm 0.00 in0.0 mm 0.00 in0.0 mm
06:15 PM 75.9°F24.4°C 44.7°F7.1°C 33% Calm Calm -- 29.80 in1009.1 mb 0.00 in0.0 mm 0.00 in0.0 mm 0.00 in0.0 mm
06:30 PM 76.3°F24.6°C 43.4°F6.3°C 31% Calm Calm 5.9 mph9.5 kmh 29.83 in1010.2 mb 0.00 in0.0 mm 0.00 in0.0 mm 0.00 in0.0 mm
06:45 PM 76.5°F24.7°C 42.7°F5.9°C 30% 4.1 mph WNW6.6 kmh WNW 8.2 mph13.2 kmh 29.83 in1010.2 mb 0.00 in0.0 mm 0.00 in0.0 mm 0.00 in0.0 mm
07:00 PM 73.6°F23.1°C 49.1°F9.5°C 42% 7.6 mph SE12.2 kmh SE 13.2 mph21.2 kmh 29.83 in1010.2 mb 0.00 in0.0 mm 0.00 in0.0 mm 0.00 in0.0 mm
07:15 PM 72.5°F22.5°C 43.3°F6.3°C 35% 4.7 mph NW7.6 kmh NW 8.8 mph14.2 kmh 29.83 in1010.2 mb 0.00 in0.0 mm 0.00 in0.0 mm 0.00 in0.0 mm
07:30 PM 71.6°F22.0°C 41.0°F5.0°C 33% 7.0 mph NW11.3 kmh NW 12.0 mph19.3 kmh 29.83 in1010.2 mb 0.00 in0.0 mm 0.00 in0.0 mm 0.00 in0.0 mm
07:45 PM 70.5°F21.4°C 40.8°F4.9°C 34% 8.2 mph NW13.2 kmh NW 13.2 mph21.2 kmh 29.86 in1011.2 mb 0.00 in0.0 mm 0.00 in0.0 mm 0.00 in0.0 mm
08:00 PM 69.4°F20.8°C 40.6°F4.8°C 35% 6.4 mph NW10.3 kmh NW 14.4 mph23.2 kmh 29.86 in1011.2 mb 0.00 in0.0 mm 0.00 in0.0 mm 0.00 in0.0 mm
08:15 PM 68.4°F20.2°C 40.4°F4.7°C 36% 8.8 mph NW14.2 kmh NW 14.4 mph23.2 kmh 29.86 in1011.2 mb 0.00 in0.0 mm 0.00 in0.0 mm 0.00 in0.0 mm
08:30 PM 67.5°F19.7°C 40.3°F4.6°C 37% 8.2 mph NW13.2 kmh NW 16.7 mph26.9 kmh 29.86 in1011.2 mb 0.00 in0.0 mm 0.00 in0.0 mm 0.00 in0.0 mm
08:45 PM 66.7°F19.3°C 40.3°F4.6°C 38% 7.6 mph WNW12.2 kmh WNW 15.5 mph24.9 kmh 29.86 in1011.2 mb 0.00 in0.0 mm 0.00 in0.0 mm 0.00 in0.0 mm
09:00 PM 66.4°F19.1°C 40.0°F4.4°C 38% 8.2 mph WNW13.2 kmh WNW 15.5 mph24.9 kmh 29.86 in1011.2 mb 0.00 in0.0 mm 0.00 in0.0 mm 0.00 in0.0 mm
09:15 PM 66.0°F18.9°C 39.7°F4.3°C 38% 8.2 mph WNW13.2 kmh WNW 16.7 mph26.9 kmh 29.89 in1012.2 mb 0.00 in0.0 mm 0.00 in0.0 mm 0.00 in0.0 mm
09:30 PM 65.8°F18.8°C 39.5°F4.2°C 38% 7.6 mph NW12.2 kmh NW 12.6 mph20.3 kmh 29.89 in1012.2 mb 0.00 in0.0 mm 0.00 in0.0 mm 0.00 in0.0 mm
09:45 PM 65.5°F18.6°C 39.9°F4.4°C 39% 8.8 mph WNW14.2 kmh WNW 12.6 mph20.3 kmh 29.89 in1012.2 mb 0.00 in0.0 mm 0.00 in0.0 mm 0.00 in0.0 mm
10:00 PM 65.1°F18.4°C 39.5°F4.2°C 39% 7.0 mph WNW11.3 kmh WNW 14.4 mph23.2 kmh 29.89 in1012.2 mb 0.00 in0.0 mm 0.00 in0.0 mm 0.00 in0.0 mm
10:15 PM 64.9°F18.3°C 39.4°F4.1°C 39% 7.6 mph WNW12.2 kmh WNW 14.4 mph23.2 kmh 29.89 in1012.2 mb 0.00 in0.0 mm 0.00 in0.0 mm 0.00 in0.0 mm
10:30 PM 64.8°F18.2°C 39.2°F4.0°C 39% 7.6 mph NW12.2 kmh NW 14.4 mph23.2 kmh 29.89 in1012.2 mb 0.00 in0.0 mm 0.00 in0.0 mm 0.00 in0.0 mm
10:45 PM 64.6°F18.1°C 38.4°F3.6°C 38% 5.3 mph WNW8.5 kmh WNW 14.9 mph24.0 kmh 29.89 in1012.2 mb 0.00 in0.0 mm 0.00 in0.0 mm 0.00 in0.0 mm
11:00 PM 64.8°F18.2°C 37.9°F3.3°C 37% 7.0 mph NW11.3 kmh NW 19.0 mph30.6 kmh 29.89 in1012.2 mb 0.00 in0.0 mm 0.00 in0.0 mm 0.00 in0.0 mm
11:15 PM 64.6°F18.1°C 37.0°F2.8°C 36% 8.2 mph NW13.2 kmh NW 13.2 mph21.2 kmh 29.89 in1012.2 mb 0.00 in0.0 mm 0.00 in0.0 mm 0.00 in0.0 mm